createdAt,value
2017-08-23T00:02:00.527Z,38.47
2017-08-23T00:04:31.298Z,38.30
2017-08-23T00:07:01.795Z,43.37
2017-08-23T00:09:32.099Z,43.43
2017-08-23T00:12:02.524Z,42.10
2017-08-23T00:14:33.078Z,46.80
2017-08-23T00:17:03.680Z,48.43
2017-08-23T00:19:34.118Z,47.43
2017-08-23T00:22:04.590Z,44.97
2017-08-23T00:24:35.137Z,43.83
2017-08-23T00:27:08.949Z,43.90
2017-08-23T00:29:39.435Z,38.73
2017-08-23T00:32:10.613Z,35.50
2017-08-23T00:34:41.051Z,31.13
2017-08-23T00:37:11.431Z,30.03
2017-08-23T00:39:42.077Z,30.80
2017-08-23T00:42:13.358Z,30.37
2017-08-23T00:44:43.896Z,28.77
2017-08-23T00:47:14.380Z,27.27
2017-08-23T00:49:44.955Z,26.57
2017-08-23T00:52:15.607Z,26.60
2017-08-23T00:54:46.204Z,23.63
2017-08-23T00:57:16.547Z,25.23
2017-08-23T00:59:46.830Z,22.93
2017-08-23T01:02:17.351Z,21.50
2017-08-23T01:04:48.144Z,21.70
2017-08-23T01:07:18.530Z,19.60
2017-08-23T01:09:49.185Z,18.00
2017-08-23T01:12:19.792Z,16.93
2017-08-23T01:14:50.342Z,15.77
2017-08-23T01:17:20.923Z,15.83
2017-08-23T01:19:51.515Z,14.87
2017-08-23T01:22:22.158Z,13.43
2017-08-23T01:24:52.655Z,13.90
2017-08-23T01:27:23.042Z,12.60
2017-08-23T01:29:53.543Z,12.13
2017-08-23T01:32:24.132Z,12.87
2017-08-23T01:34:54.583Z,13.30
2017-08-23T01:37:25.172Z,12.97
2017-08-23T01:39:55.708Z,12.30
2017-08-23T01:42:26.179Z,12.87
2017-08-23T01:44:57.491Z,11.43
2017-08-23T01:47:28.032Z,11.90
2017-08-23T01:49:59.378Z,10.10
2017-08-23T01:52:29.938Z,10.13
2017-08-23T01:55:00.499Z,11.90
2017-08-23T01:57:30.916Z,10.60
2017-08-23T02:00:01.430Z,10.47
2017-08-23T02:02:32.472Z,10.37
2017-08-23T02:05:03.345Z,10.87
2017-08-23T02:07:33.728Z,9.80
2017-08-23T02:10:04.235Z,10.23
2017-08-23T02:12:34.751Z,9.77
2017-08-23T02:15:05.288Z,10.07
2017-08-23T02:17:35.883Z,9.60
2017-08-23T02:20:06.450Z,10.57
2017-08-23T02:22:36.821Z,9.23
2017-08-23T02:25:07.347Z,10.30
2017-08-23T02:27:38.736Z,10.37
2017-08-23T02:30:09.298Z,8.23
2017-08-23T02:32:39.661Z,9.17
2017-08-23T02:35:10.230Z,9.43
2017-08-23T02:37:40.623Z,9.03
2017-08-23T02:40:11.183Z,9.23
2017-08-23T02:42:41.665Z,9.40
2017-08-23T02:45:12.319Z,9.83
2017-08-23T02:47:42.801Z,9.40
2017-08-23T02:50:13.232Z,9.00
2017-08-23T02:52:43.522Z,8.90
2017-08-23T02:55:14.152Z,8.90
2017-08-23T02:57:44.430Z,8.57
2017-08-23T03:00:14.854Z,8.63
2017-08-23T03:02:45.349Z,9.00
2017-08-23T03:05:16.811Z,9.70
2017-08-23T03:07:47.282Z,8.87
2017-08-23T03:10:17.854Z,8.30
2017-08-23T03:12:48.342Z,8.70
2017-08-23T03:15:18.875Z,8.37
2017-08-23T03:17:49.266Z,8.30
2017-08-23T03:20:19.860Z,8.30
2017-08-23T03:22:50.488Z,8.03
2017-08-23T03:25:20.880Z,7.23
2017-08-23T03:27:51.228Z,8.00
2017-08-23T03:30:21.791Z,7.40
2017-08-23T03:32:52.275Z,8.97
2017-08-23T03:35:22.665Z,8.30
2017-08-23T03:37:53.089Z,8.50
2017-08-23T03:40:23.715Z,9.87
2017-08-23T03:42:53.892Z,9.17
2017-08-23T03:45:24.467Z,9.97
2017-08-23T03:47:54.894Z,9.00
2017-08-23T03:50:25.337Z,8.60
2017-08-23T03:52:55.583Z,9.90
2017-08-23T03:55:26.162Z,10.47
2017-08-23T03:57:56.524Z,8.77
2017-08-23T04:00:26.853Z,9.97
2017-08-23T04:02:57.041Z,8.77
2017-08-23T04:05:27.773Z,9.43
2017-08-23T04:07:58.286Z,9.07
2017-08-23T04:10:28.736Z,9.10
2017-08-23T04:12:59.803Z,9.93
2017-08-23T04:15:30.420Z,8.67
2017-08-23T04:18:01.054Z,9.93
2017-08-23T04:20:31.792Z,8.63
2017-08-23T04:23:02.426Z,9.47
2017-08-23T04:25:32.966Z,9.80
2017-08-23T04:28:03.473Z,10.17
2017-08-23T04:30:34.024Z,9.03
2017-08-23T04:33:04.488Z,10.30
2017-08-23T04:35:34.858Z,9.93
2017-08-23T04:38:05.450Z,10.50
2017-08-23T04:40:35.736Z,9.00
2017-08-23T04:43:06.380Z,9.40
2017-08-23T04:45:36.855Z,9.67
2017-08-23T04:48:07.330Z,9.73
2017-08-23T04:50:37.763Z,7.93
2017-08-23T04:53:08.242Z,8.77
2017-08-23T04:55:38.791Z,9.23
2017-08-23T04:58:09.400Z,9.90
2017-08-23T05:00:39.994Z,10.40
2017-08-23T05:03:13.551Z,11.40
2017-08-23T05:05:45.042Z,10.33
2017-08-23T05:08:18.142Z,10.77
2017-08-23T05:10:49.058Z,10.77
2017-08-23T05:13:19.702Z,11.93
2017-08-23T05:15:50.270Z,10.73
2017-08-23T05:18:21.336Z,10.43
2017-08-23T05:20:52.489Z,10.13
2017-08-23T05:23:25.849Z,8.90
2017-08-23T05:25:56.878Z,9.83
2017-08-23T05:28:27.474Z,8.70
2017-08-23T05:30:58.096Z,9.07
2017-08-23T05:33:31.733Z,8.77
2017-08-23T05:36:02.826Z,8.90
2017-08-23T05:38:35.428Z,10.00
2017-08-23T05:41:07.267Z,10.73
2017-08-23T05:43:37.726Z,12.20
2017-08-23T05:46:08.397Z,10.90
2017-08-23T05:48:45.346Z,11.20
2017-08-23T05:51:16.702Z,11.80
2017-08-23T05:53:47.946Z,11.90
2017-08-23T05:56:19.025Z,12.67
2017-08-23T05:58:49.406Z,11.40
2017-08-23T06:01:20.688Z,12.73
2017-08-23T06:03:51.545Z,11.97
2017-08-23T06:06:22.522Z,11.30
2017-08-23T06:08:54.278Z,11.43
2017-08-23T06:11:27.408Z,10.67
2017-08-23T06:13:58.510Z,11.23
2017-08-23T06:16:31.160Z,9.87
2017-08-23T06:19:02.799Z,11.03
2017-08-23T06:21:36.163Z,11.10
2017-08-23T06:24:07.236Z,9.67
2017-08-23T06:26:38.234Z,10.70
2017-08-23T06:29:09.442Z,10.80
2017-08-23T06:31:41.012Z,9.90
2017-08-23T06:34:12.253Z,10.07
2017-08-23T06:36:43.202Z,11.00
2017-08-23T06:39:14.325Z,8.80
2017-08-23T06:41:44.900Z,9.63
2017-08-23T06:44:15.493Z,10.00
2017-08-23T06:46:46.106Z,9.20
2017-08-23T06:49:16.838Z,9.30
2017-08-23T06:51:47.523Z,8.60
2017-08-23T06:54:17.908Z,9.00
2017-08-23T06:56:48.318Z,9.60
2017-08-23T06:59:18.841Z,9.00
2017-08-23T07:01:49.396Z,9.93
2017-08-23T07:04:19.955Z,9.40
2017-08-23T07:06:50.775Z,9.97
2017-08-23T07:09:21.259Z,9.40
2017-08-23T07:11:52.441Z,10.10
2017-08-23T07:14:23.068Z,9.20
2017-08-23T07:16:53.491Z,10.27
2017-08-23T07:19:23.983Z,10.60
2017-08-23T07:21:54.300Z,11.07
2017-08-23T07:24:24.903Z,9.47
2017-08-23T07:26:55.511Z,10.13
2017-08-23T07:29:26.155Z,9.60
2017-08-23T07:31:56.781Z,8.70
2017-08-23T07:34:27.098Z,9.27
2017-08-23T07:36:57.566Z,10.00
2017-08-23T07:39:28.035Z,9.87
2017-08-23T07:41:58.504Z,10.30
2017-08-23T07:44:28.994Z,9.73
2017-08-23T07:46:59.646Z,8.60
2017-08-23T07:49:30.123Z,7.77
2017-08-23T07:52:00.727Z,8.30
2017-08-23T07:54:31.285Z,9.30
2017-08-23T07:57:01.690Z,8.07
2017-08-23T07:59:31.996Z,8.50
2017-08-23T08:02:02.562Z,8.07
2017-08-23T08:04:32.908Z,7.63
2017-08-23T08:07:04.061Z,7.70
2017-08-23T08:09:34.432Z,7.50
2017-08-23T08:12:04.804Z,7.07
2017-08-23T08:14:35.263Z,7.43
2017-08-23T08:17:09.002Z,7.37
2017-08-23T08:19:39.467Z,7.70
2017-08-23T08:22:10.067Z,7.10
2017-08-23T08:24:40.664Z,7.90
2017-08-23T08:27:11.313Z,7.53
2017-08-23T08:29:41.821Z,7.57
2017-08-23T08:32:12.460Z,8.00
2017-08-23T08:34:43.212Z,7.30
2017-08-23T08:37:13.719Z,6.00
2017-08-23T08:39:44.100Z,7.70
2017-08-23T08:42:14.721Z,8.20
2017-08-23T08:44:44.985Z,8.20
2017-08-23T08:47:16.128Z,9.10
2017-08-23T08:49:46.585Z,8.20
2017-08-23T08:52:17.030Z,10.07
2017-08-23T08:54:47.646Z,8.20
2017-08-23T08:57:18.015Z,8.63
2017-08-23T08:59:50.060Z,8.90
2017-08-23T09:02:20.700Z,8.53
2017-08-23T09:04:51.285Z,8.63
2017-08-23T09:07:22.084Z,8.63
2017-08-23T09:09:52.596Z,7.47
2017-08-23T09:12:22.935Z,6.90
2017-08-23T09:14:53.416Z,7.43
2017-08-23T09:17:23.960Z,8.17
2017-08-23T09:19:55.094Z,8.27
2017-08-23T09:22:25.750Z,8.00
2017-08-23T09:24:56.216Z,8.70
2017-08-23T09:27:26.813Z,7.50
2017-08-23T09:29:57.391Z,7.93
2017-08-23T09:32:28.000Z,10.10
2017-08-23T09:34:58.628Z,12.50
2017-08-23T09:37:29.250Z,10.80
2017-08-23T09:39:59.755Z,8.00
2017-08-23T09:42:29.923Z,7.90
2017-08-23T09:45:00.519Z,7.63
2017-08-23T09:47:31.101Z,8.10
2017-08-23T09:50:01.693Z,6.43
2017-08-23T09:52:32.221Z,6.57
2017-08-23T09:55:02.697Z,6.80
2017-08-23T09:57:33.998Z,6.77
2017-08-23T10:00:05.729Z,7.10
2017-08-23T10:02:36.178Z,6.23
2017-08-23T10:05:06.613Z,6.77
2017-08-23T10:07:38.228Z,6.60
2017-08-23T10:10:08.847Z,6.80
2017-08-23T10:12:39.316Z,6.00
2017-08-23T10:15:09.533Z,6.93
2017-08-23T10:17:40.097Z,6.77
2017-08-23T10:20:11.283Z,7.17
2017-08-23T10:22:41.785Z,6.53
2017-08-23T10:25:12.285Z,6.70
2017-08-23T10:27:42.907Z,7.50
2017-08-23T10:30:13.440Z,8.33
2017-08-23T10:32:44.101Z,8.20
2017-08-23T10:35:14.542Z,8.63
2017-08-23T10:37:45.191Z,12.40
2017-08-23T10:40:15.765Z,13.93
2017-08-23T10:42:46.086Z,10.60
2017-08-23T10:45:16.536Z,10.60
2017-08-23T10:47:46.857Z,8.30
2017-08-23T10:50:17.367Z,8.40
2017-08-23T10:52:47.817Z,7.73
2017-08-23T10:55:18.398Z,8.13
2017-08-23T10:57:49.116Z,6.20
2017-08-23T11:00:19.516Z,8.17
2017-08-23T11:02:50.330Z,8.07
2017-08-23T11:05:20.822Z,7.43
2017-08-23T11:07:51.659Z,24.33
2017-08-23T11:10:22.090Z,20.83
2017-08-23T11:12:52.625Z,21.43
2017-08-23T11:15:23.085Z,21.00
2017-08-23T11:17:53.367Z,15.70
2017-08-23T11:20:23.770Z,14.60
2017-08-23T11:22:54.003Z,13.20
2017-08-23T11:25:25.277Z,11.10
2017-08-23T11:27:55.517Z,11.20
2017-08-23T11:30:25.900Z,9.73
2017-08-23T11:32:56.275Z,11.00
2017-08-23T11:35:26.846Z,10.67
2017-08-23T11:37:57.912Z,10.80
2017-08-23T11:40:28.316Z,11.13
2017-08-23T11:42:58.614Z,10.87
2017-08-23T11:45:29.949Z,11.80
2017-08-23T11:48:00.364Z,13.37
2017-08-23T11:50:31.068Z,12.37
2017-08-23T11:53:02.397Z,12.17
2017-08-23T11:55:32.622Z,14.07
2017-08-23T11:58:02.960Z,19.00
2017-08-23T12:00:33.314Z,15.03
2017-08-23T12:03:03.759Z,16.57
2017-08-23T12:05:34.260Z,12.53
2017-08-23T12:08:05.048Z,12.10
2017-08-23T12:10:35.435Z,12.47
2017-08-23T12:13:05.818Z,13.87
2017-08-23T12:15:36.335Z,11.17
2017-08-23T12:18:07.033Z,10.97
2017-08-23T12:20:38.473Z,12.47
2017-08-23T12:23:09.027Z,11.90
2017-08-23T12:25:39.520Z,13.67
2017-08-23T12:28:09.998Z,13.80
2017-08-23T12:30:40.574Z,13.00
2017-08-23T12:33:11.210Z,11.03
2017-08-23T12:35:41.809Z,10.47
2017-08-23T12:38:12.414Z,11.50
2017-08-23T12:40:43.079Z,11.70
2017-08-23T12:43:13.627Z,11.87
2017-08-23T12:45:44.050Z,10.67
2017-08-23T12:48:14.432Z,11.67
2017-08-23T12:50:44.982Z,11.83
2017-08-23T12:53:15.576Z,13.00
2017-08-23T12:55:46.804Z,13.50
2017-08-23T12:58:17.395Z,12.37
2017-08-23T13:00:47.966Z,12.13
2017-08-23T13:03:18.643Z,13.40
2017-08-23T13:05:49.175Z,13.00
2017-08-23T13:08:20.418Z,12.53
2017-08-23T13:10:50.974Z,12.30
2017-08-23T13:13:21.478Z,11.90
2017-08-23T13:15:51.879Z,13.53
2017-08-23T13:18:22.543Z,12.13
2017-08-23T13:20:53.271Z,13.43
2017-08-23T13:23:23.802Z,11.43
2017-08-23T13:25:54.218Z,11.23
2017-08-23T13:28:25.482Z,13.03
2017-08-23T13:30:55.937Z,11.50
2017-08-23T13:33:26.323Z,10.47
2017-08-23T13:35:57.026Z,11.97
2017-08-23T13:38:27.608Z,11.87
2017-08-23T13:40:58.239Z,10.83
2017-08-23T13:43:28.868Z,11.87
2017-08-23T13:45:59.505Z,11.33
2017-08-23T13:48:29.864Z,11.97
2017-08-23T13:51:00.414Z,12.03
2017-08-23T13:53:30.994Z,11.70
2017-08-23T13:56:01.563Z,12.47
2017-08-23T13:58:32.386Z,12.07
2017-08-23T14:01:02.950Z,12.63
2017-08-23T14:03:33.515Z,12.80
2017-08-23T14:06:04.199Z,12.80
2017-08-23T14:08:35.451Z,13.00
2017-08-23T14:11:06.132Z,12.90
2017-08-23T14:13:36.622Z,12.20
2017-08-23T14:16:07.146Z,12.30
2017-08-23T14:18:37.955Z,13.23
2017-08-23T14:21:08.597Z,12.43
2017-08-23T14:23:39.162Z,13.27
2017-08-23T14:26:09.714Z,12.43
2017-08-23T14:28:41.151Z,12.20
2017-08-23T14:31:11.766Z,11.50
2017-08-23T14:33:42.622Z,12.60
2017-08-23T14:36:13.120Z,11.80
2017-08-23T14:38:43.407Z,11.80
2017-08-23T14:41:13.958Z,11.60
2017-08-23T14:43:44.385Z,11.47
2017-08-23T14:46:15.064Z,12.80
2017-08-23T14:48:45.756Z,12.60
2017-08-23T14:51:16.381Z,11.47
2017-08-23T14:53:47.163Z,12.10
2017-08-23T14:56:18.664Z,11.80
2017-08-23T14:58:49.491Z,13.07
2017-08-23T15:01:20.195Z,11.63
2017-08-23T15:03:50.736Z,11.13
2017-08-23T15:06:21.442Z,10.77
2017-08-23T15:08:52.508Z,13.43
2017-08-23T15:11:23.363Z,12.40
2017-08-23T15:13:54.749Z,11.07
2017-08-23T15:16:25.356Z,10.80
2017-08-23T15:18:56.072Z,12.20
2017-08-23T15:21:26.715Z,11.37
2017-08-23T15:23:57.919Z,10.60
2017-08-23T15:26:28.601Z,11.67
2017-08-23T15:29:00.218Z,10.93
2017-08-23T15:31:30.855Z,10.73
2017-08-23T15:36:36.164Z,10.47
2017-08-23T15:39:06.951Z,11.67
2017-08-23T15:41:37.427Z,10.63
2017-08-23T15:44:07.864Z,11.30
2017-08-23T15:46:38.450Z,11.23
2017-08-23T15:49:08.997Z,10.90
2017-08-23T15:51:39.598Z,11.70
2017-08-23T15:54:10.165Z,11.40
2017-08-23T15:56:41.273Z,10.80
2017-08-23T15:59:11.760Z,10.83
2017-08-23T16:01:42.158Z,10.60
2017-08-23T16:04:12.536Z,11.67
2017-08-23T16:06:43.096Z,11.53
2017-08-23T16:09:14.159Z,11.20
2017-08-23T16:11:44.645Z,11.33
2017-08-23T16:14:15.259Z,11.60
2017-08-23T16:16:45.893Z,11.00
2017-08-23T16:19:16.520Z,11.10
2017-08-23T16:21:47.029Z,12.43
2017-08-23T16:24:18.522Z,12.07
2017-08-23T16:26:50.341Z,12.77
2017-08-23T16:29:20.785Z,12.80
2017-08-23T16:31:51.863Z,13.40
2017-08-23T16:34:22.498Z,11.67
2017-08-23T16:36:53.054Z,12.67
2017-08-23T16:39:23.657Z,12.40
2017-08-23T16:41:54.477Z,13.40
2017-08-23T16:44:24.834Z,13.40
2017-08-23T16:46:55.454Z,12.80
2017-08-23T16:49:25.964Z,12.97
2017-08-23T16:51:56.502Z,13.00
2017-08-23T16:54:27.222Z,13.47
2017-08-23T16:56:57.692Z,12.53
2017-08-23T16:59:28.159Z,14.30
2017-08-23T17:01:58.522Z,14.33
2017-08-23T17:04:29.087Z,13.63
2017-08-23T17:07:00.183Z,14.50
2017-08-23T17:09:31.019Z,13.90
2017-08-23T17:12:01.433Z,13.83
2017-08-23T17:14:31.980Z,13.93
2017-08-23T17:17:02.523Z,16.60
2017-08-23T17:19:33.022Z,15.00
2017-08-23T17:22:03.431Z,14.60
2017-08-23T17:24:33.856Z,13.70
2017-08-23T17:27:04.363Z,13.87
2017-08-23T17:29:34.933Z,15.40
2017-08-23T17:32:05.554Z,15.00
2017-08-23T17:34:36.144Z,14.40
2017-08-23T17:37:06.921Z,17.37
2017-08-23T17:39:37.504Z,16.60
2017-08-23T17:42:08.036Z,16.30
2017-08-23T17:44:38.677Z,18.17
2017-08-23T17:47:09.122Z,19.10
2017-08-23T17:49:40.012Z,17.27
2017-08-23T17:52:10.671Z,16.93
2017-08-23T17:54:41.294Z,17.97
2017-08-23T17:57:12.437Z,19.37
2017-08-23T17:59:42.898Z,17.87
2017-08-23T18:02:13.487Z,16.43
2017-08-23T18:04:44.116Z,17.00
2017-08-23T18:07:14.623Z,15.80
2017-08-23T18:09:45.460Z,17.10
2017-08-23T18:12:15.983Z,17.57
2017-08-23T18:14:46.596Z,18.87
2017-08-23T18:17:17.219Z,19.37
2017-08-23T18:19:47.715Z,19.27
2017-08-23T18:22:18.346Z,19.00
2017-08-23T18:24:49.014Z,18.77
2017-08-23T18:27:19.641Z,17.40
2017-08-23T18:29:50.146Z,18.20
2017-08-23T18:32:20.519Z,20.10
2017-08-23T18:34:51.040Z,21.13
2017-08-23T18:37:21.545Z,20.20
2017-08-23T18:39:52.918Z,18.17
2017-08-23T18:42:23.730Z,20.83
2017-08-23T18:44:54.355Z,18.73
2017-08-23T18:47:24.679Z,21.03
2017-08-23T18:49:55.972Z,19.50
2017-08-23T18:52:26.557Z,21.23
2017-08-23T18:54:57.105Z,22.33
2017-08-23T18:57:28.330Z,23.37
2017-08-23T18:59:58.704Z,23.93
2017-08-23T19:02:29.210Z,24.60
2017-08-23T19:05:00.300Z,24.47
2017-08-23T19:07:30.763Z,25.53
2017-08-23T19:10:01.463Z,23.47
2017-08-23T19:12:31.946Z,22.47
2017-08-23T19:15:02.413Z,21.20
2017-08-23T19:17:32.887Z,21.10
2017-08-23T19:20:03.451Z,21.90
2017-08-23T19:22:34.019Z,23.70
2017-08-23T19:25:04.620Z,25.80
2017-08-23T19:27:35.247Z,24.83
2017-08-23T19:30:05.831Z,23.37
2017-08-23T19:32:36.417Z,25.40
2017-08-23T19:35:06.924Z,25.17
2017-08-23T19:37:37.461Z,24.60
2017-08-23T19:40:08.651Z,25.77
2017-08-23T19:42:39.235Z,26.80
2017-08-23T19:45:09.753Z,27.27
2017-08-23T19:47:40.403Z,25.27
2017-08-23T19:50:10.848Z,26.00
2017-08-23T19:52:42.020Z,25.97
2017-08-23T19:55:12.653Z,28.60
2017-08-23T19:57:43.185Z,28.43
2017-08-23T20:00:13.705Z,30.57
2017-08-23T20:02:49.229Z,26.30
2017-08-23T20:05:19.687Z,25.83
2017-08-23T20:07:50.272Z,23.17
2017-08-23T20:10:20.842Z,24.60
2017-08-23T20:12:51.222Z,25.03
2017-08-23T20:15:21.855Z,25.40
2017-08-23T20:17:52.452Z,26.40
2017-08-23T20:20:23.086Z,28.70
2017-08-23T20:22:53.706Z,30.13
2017-08-23T20:25:23.987Z,28.27
2017-08-23T20:27:54.294Z,26.90
2017-08-23T20:30:25.148Z,31.40
2017-08-23T20:32:55.425Z,32.80
2017-08-23T20:35:26.008Z,35.00
2017-08-23T20:37:56.502Z,34.07
2017-08-23T20:40:27.052Z,39.97
2017-08-23T20:42:57.463Z,36.10
2017-08-23T20:45:27.858Z,32.60
2017-08-23T20:47:58.203Z,34.00
2017-08-23T20:50:28.717Z,39.23
2017-08-23T20:52:59.108Z,41.07
2017-08-23T20:55:29.654Z,39.00
2017-08-23T20:58:00.779Z,35.73
2017-08-23T21:00:36.772Z,38.97
2017-08-23T21:03:07.414Z,51.40
2017-08-23T21:05:38.032Z,48.00
2017-08-23T21:08:08.610Z,49.40
2017-08-23T21:10:39.803Z,54.10
2017-08-23T21:13:10.424Z,57.43
2017-08-23T21:15:42.016Z,49.57
2017-08-23T21:18:12.524Z,52.20
2017-08-23T21:20:42.967Z,55.10
2017-08-23T21:23:13.535Z,64.50
2017-08-23T21:25:44.086Z,53.47
2017-08-23T21:28:14.761Z,46.37
2017-08-23T21:30:45.402Z,46.87
2017-08-23T21:33:16.051Z,40.80
2017-08-23T21:35:46.655Z,38.50
2017-08-23T21:38:17.210Z,38.03
2017-08-23T21:40:47.837Z,35.70
2017-08-23T21:43:19.066Z,37.60
2017-08-23T21:45:49.590Z,38.70
2017-08-23T21:48:20.212Z,37.63
2017-08-23T21:50:50.857Z,38.10
2017-08-23T21:53:22.029Z,35.60
2017-08-23T21:55:52.444Z,36.20
2017-08-23T21:58:22.991Z,42.03
2017-08-23T22:00:54.074Z,37.70
2017-08-23T22:03:24.553Z,32.87
2017-08-23T22:05:55.002Z,34.40
2017-08-23T22:08:25.552Z,38.37
2017-08-23T22:10:56.572Z,37.90
2017-08-23T22:13:26.951Z,36.33
2017-08-23T22:15:57.513Z,37.07
2017-08-23T22:18:28.343Z,36.90
2017-08-23T22:20:58.971Z,40.93
2017-08-23T22:23:29.487Z,40.13
2017-08-23T22:25:59.933Z,40.40
2017-08-23T22:28:30.510Z,42.47
2017-08-23T22:31:01.065Z,44.50
2017-08-23T22:33:31.651Z,44.97
2017-08-23T22:36:02.264Z,39.40
2017-08-23T22:38:32.802Z,38.37
2017-08-23T22:41:03.321Z,35.80
2017-08-23T22:43:34.612Z,34.30
2017-08-23T22:46:05.276Z,41.97
2017-08-23T22:48:35.876Z,41.87
2017-08-23T22:51:06.384Z,39.63
2017-08-23T22:53:37.007Z,36.00
2017-08-23T22:56:07.540Z,37.60
2017-08-23T22:58:37.983Z,36.77
2017-08-23T23:01:08.596Z,37.00
2017-08-23T23:03:39.385Z,37.07
2017-08-23T23:06:09.885Z,36.03
2017-08-23T23:08:40.355Z,33.60
2017-08-23T23:11:11.463Z,36.97
2017-08-23T23:13:41.960Z,43.43
2017-08-23T23:16:12.616Z,37.90
2017-08-23T23:18:45.456Z,40.27
2017-08-23T23:21:15.924Z,41.63
2017-08-23T23:23:46.336Z,40.10
2017-08-23T23:26:16.866Z,38.03
2017-08-23T23:28:47.364Z,37.60
2017-08-23T23:31:17.931Z,33.60
2017-08-23T23:33:49.214Z,37.60
2017-08-23T23:36:19.677Z,41.27
2017-08-23T23:38:50.100Z,43.90
2017-08-23T23:41:20.516Z,36.80
2017-08-23T23:43:50.930Z,37.43
2017-08-23T23:46:21.357Z,38.87
2017-08-23T23:48:51.818Z,39.37
2017-08-23T23:51:22.273Z,41.63
2017-08-23T23:53:52.775Z,40.83
2017-08-23T23:56:23.323Z,41.33
2017-08-23T23:58:54.206Z,40.30
